sensor_id;sensor_type;location;lat;lon;timestamp;pressure;altitude;pressure_sealevel;temperature;humidity
79534;BME280;68982;52.160;6.736;2023-06-10T00:01:44;101327.06;;;20.89;43.25
79534;BME280;68982;52.160;6.736;2023-06-10T00:04:16;101333.41;;;20.90;43.51
79534;BME280;68982;52.160;6.736;2023-06-10T00:06:44;101330.50;;;20.97;43.43
79534;BME280;68982;52.160;6.736;2023-06-10T00:09:09;101330.97;;;20.77;44.11
79534;BME280;68982;52.160;6.736;2023-06-10T00:11:40;101328.06;;;20.83;45.55
79534;BME280;68982;52.160;6.736;2023-06-10T00:14:05;101331.03;;;20.82;46.70
79534;BME280;68982;52.160;6.736;2023-06-10T00:16:31;101345.25;;;20.79;44.79
79534;BME280;68982;52.160;6.736;2023-06-10T00:18:58;101338.22;;;20.71;46.90
79534;BME280;68982;52.160;6.736;2023-06-10T00:21:27;101338.38;;;20.64;45.06
79534;BME280;68982;52.160;6.736;2023-06-10T00:23:53;101341.56;;;20.73;46.01
79534;BME280;68982;52.160;6.736;2023-06-10T00:26:20;101343.66;;;20.83;47.09
79534;BME280;68982;52.160;6.736;2023-06-10T00:28:46;101333.97;;;20.63;45.56
79534;BME280;68982;52.160;6.736;2023-06-10T00:31:12;101334.66;;;20.70;45.47
79534;BME280;68982;52.160;6.736;2023-06-10T00:33:37;101324.31;;;20.61;45.85
79534;BME280;68982;52.160;6.736;2023-06-10T00:36:02;101328.84;;;20.55;46.05
79534;BME280;68982;52.160;6.736;2023-06-10T00:38:28;101331.72;;;20.60;47.40
79534;BME280;68982;52.160;6.736;2023-06-10T00:40:54;101332.91;;;20.53;46.70
79534;BME280;68982;52.160;6.736;2023-06-10T00:43:19;101336.13;;;20.49;46.80
79534;BME280;68982;52.160;6.736;2023-06-10T00:45:44;101323.28;;;20.38;47.80
79534;BME280;68982;52.160;6.736;2023-06-10T00:48:10;101338.53;;;20.46;48.07
79534;BME280;68982;52.160;6.736;2023-06-10T00:50:35;101333.91;;;20.35;47.73
79534;BME280;68982;52.160;6.736;2023-06-10T00:53:04;101338.28;;;20.36;49.80
79534;BME280;68982;52.160;6.736;2023-06-10T00:55:31;101335.78;;;20.34;48.08
79534;BME280;68982;52.160;6.736;2023-06-10T00:57:57;101334.13;;;20.33;47.78
79534;BME280;68982;52.160;6.736;2023-06-10T01:00:23;101328.03;;;20.43;48.95
79534;BME280;68982;52.160;6.736;2023-06-10T01:02:49;101343.91;;;20.29;48.89
79534;BME280;68982;52.160;6.736;2023-06-10T01:05:14;101337.84;;;20.39;49.54
79534;BME280;68982;52.160;6.736;2023-06-10T01:08:01;101333.84;;;20.06;49.37
79534;BME280;68982;52.160;6.736;2023-06-10T01:10:37;101335.28;;;19.97;49.42
79534;BME280;68982;52.160;6.736;2023-06-10T01:13:06;101346.91;;;20.16;50.91
79534;BME280;68982;52.160;6.736;2023-06-10T01:15:34;101342.75;;;20.13;49.75
79534;BME280;68982;52.160;6.736;2023-06-10T01:18:04;101344.28;;;20.09;49.33
79534;BME280;68982;52.160;6.736;2023-06-10T01:20:32;101339.41;;;20.11;48.80
79534;BME280;68982;52.160;6.736;2023-06-10T01:22:59;101346.31;;;20.02;50.39
79534;BME280;68982;52.160;6.736;2023-06-10T01:25:26;101345.50;;;20.01;49.91
79534;BME280;68982;52.160;6.736;2023-06-10T01:28:16;101345.25;;;19.91;50.82
79534;BME280;68982;52.160;6.736;2023-06-10T01:31:09;101349.09;;;19.90;50.60
79534;BME280;68982;52.160;6.736;2023-06-10T01:33:45;101344.66;;;19.77;51.16
79534;BME280;68982;52.160;6.736;2023-06-10T01:36:12;101337.63;;;19.70;50.45
79534;BME280;68982;52.160;6.736;2023-06-10T01:38:44;101348.00;;;19.79;51.61
79534;BME280;68982;52.160;6.736;2023-06-10T01:41:12;101344.38;;;19.55;50.48
79534;BME280;68982;52.160;6.736;2023-06-10T01:43:39;101350.91;;;19.42;51.64
79534;BME280;68982;52.160;6.736;2023-06-10T01:46:05;101343.66;;;19.60;52.37
79534;BME280;68982;52.160;6.736;2023-06-10T01:48:30;101336.66;;;19.52;51.91
79534;BME280;68982;52.160;6.736;2023-06-10T01:50:55;101340.00;;;19.54;52.04
79534;BME280;68982;52.160;6.736;2023-06-10T01:53:22;101346.41;;;19.48;51.84
79534;BME280;68982;52.160;6.736;2023-06-10T01:55:48;101353.91;;;19.53;52.78
79534;BME280;68982;52.160;6.736;2023-06-10T01:58:13;101355.75;;;19.40;51.83
79534;BME280;68982;52.160;6.736;2023-06-10T02:00:39;101346.50;;;19.41;52.22
79534;BME280;68982;52.160;6.736;2023-06-10T02:03:04;101362.31;;;19.51;52.50
79534;BME280;68982;52.160;6.736;2023-06-10T02:05:30;101353.38;;;19.32;53.00
79534;BME280;68982;52.160;6.736;2023-06-10T02:07:55;101356.44;;;19.24;53.42
79534;BME280;68982;52.160;6.736;2023-06-10T02:10:20;101355.25;;;19.20;53.45
79534;BME280;68982;52.160;6.736;2023-06-10T02:12:46;101344.78;;;19.17;53.28
79534;BME280;68982;52.160;6.736;2023-06-10T02:15:11;101350.50;;;19.27;54.35
79534;BME280;68982;52.160;6.736;2023-06-10T02:17:36;101349.56;;;19.33;53.50
79534;BME280;68982;52.160;6.736;2023-06-10T02:20:03;101352.97;;;19.17;54.25
79534;BME280;68982;52.160;6.736;2023-06-10T02:22:29;101361.28;;;19.10;53.50
79534;BME280;68982;52.160;6.736;2023-06-10T02:24:54;101350.09;;;19.12;54.25
79534;BME280;68982;52.160;6.736;2023-06-10T02:27:20;101367.97;;;19.14;53.86
79534;BME280;68982;52.160;6.736;2023-06-10T02:29:46;101365.56;;;19.18;55.10
79534;BME280;68982;52.160;6.736;2023-06-10T02:32:11;101359.75;;;19.14;54.66
79534;BME280;68982;52.160;6.736;2023-06-10T02:34:37;101368.09;;;19.19;54.80
79534;BME280;68982;52.160;6.736;2023-06-10T02:37:02;101374.97;;;19.22;54.49
79534;BME280;68982;52.160;6.736;2023-06-10T02:39:28;101371.97;;;19.12;54.45
79534;BME280;68982;52.160;6.736;2023-06-10T02:41:54;101366.94;;;18.97;54.52
79534;BME280;68982;52.160;6.736;2023-06-10T02:44:19;101366.41;;;18.88;55.28
79534;BME280;68982;52.160;6.736;2023-06-10T02:46:45;101360.97;;;18.88;54.99
79534;BME280;68982;52.160;6.736;2023-06-10T02:49:11;101361.47;;;18.97;55.41
79534;BME280;68982;52.160;6.736;2023-06-10T02:51:37;101357.13;;;19.08;55.83
79534;BME280;68982;52.160;6.736;2023-06-10T02:54:02;101365.81;;;18.86;55.95
79534;BME280;68982;52.160;6.736;2023-06-10T02:56:28;101369.25;;;18.81;55.80
79534;BME280;68982;52.160;6.736;2023-06-10T02:58:53;101365.34;;;18.71;55.15
79534;BME280;68982;52.160;6.736;2023-06-10T03:01:18;101365.22;;;18.66;56.30
79534;BME280;68982;52.160;6.736;2023-06-10T03:03:45;101355.94;;;18.67;55.32
79534;BME280;68982;52.160;6.736;2023-06-10T03:06:12;101351.63;;;18.77;56.02
79534;BME280;68982;52.160;6.736;2023-06-10T03:08:38;101359.50;;;18.67;56.09
79534;BME280;68982;52.160;6.736;2023-06-10T03:11:04;101356.41;;;18.82;56.24
79534;BME280;68982;52.160;6.736;2023-06-10T03:13:29;101362.47;;;18.84;56.40
79534;BME280;68982;52.160;6.736;2023-06-10T03:15:55;101364.53;;;18.70;56.05
79534;BME280;68982;52.160;6.736;2023-06-10T03:18:20;101370.69;;;18.84;56.27
79534;BME280;68982;52.160;6.736;2023-06-10T03:20:48;101361.03;;;18.63;56.32
79534;BME280;68982;52.160;6.736;2023-06-10T03:23:13;101368.84;;;18.78;56.41
79534;BME280;68982;52.160;6.736;2023-06-10T03:25:38;101373.41;;;18.66;56.55
79534;BME280;68982;52.160;6.736;2023-06-10T03:28:04;101364.53;;;18.52;57.32
79534;BME280;68982;52.160;6.736;2023-06-10T03:30:29;101376.13;;;18.66;57.40
79534;BME280;68982;52.160;6.736;2023-06-10T03:32:54;101380.53;;;18.48;57.12
79534;BME280;68982;52.160;6.736;2023-06-10T03:35:20;101375.16;;;18.41;57.06
79534;BME280;68982;52.160;6.736;2023-06-10T03:37:45;101373.56;;;18.52;57.53
79534;BME280;68982;52.160;6.736;2023-06-10T03:40:11;101382.66;;;18.46;57.54
79534;BME280;68982;52.160;6.736;2023-06-10T03:42:37;101374.19;;;18.54;57.15
79534;BME280;68982;52.160;6.736;2023-06-10T03:45:03;101382.94;;;18.56;57.05
79534;BME280;68982;52.160;6.736;2023-06-10T03:47:38;101379.31;;;18.62;56.95
79534;BME280;68982;52.160;6.736;2023-06-10T03:50:06;101376.66;;;18.37;57.33
79534;BME280;68982;52.160;6.736;2023-06-10T03:52:33;101381.91;;;18.57;57.04
79534;BME280;68982;52.160;6.736;2023-06-10T03:54:59;101395.25;;;18.47;57.51
79534;BME280;68982;52.160;6.736;2023-06-10T03:57:24;101393.94;;;18.31;57.33
79534;BME280;68982;52.160;6.736;2023-06-10T03:59:49;101387.75;;;18.42;57.36
79534;BME280;68982;52.160;6.736;2023-06-10T04:02:15;101391.91;;;18.63;56.43
79534;BME280;68982;52.160;6.736;2023-06-10T04:04:41;101387.53;;;18.44;57.20
79534;BME280;68982;52.160;6.736;2023-06-10T04:07:06;101380.75;;;18.47;56.80
79534;BME280;68982;52.160;6.736;2023-06-10T04:09:33;101389.09;;;18.33;57.24
79534;BME280;68982;52.160;6.736;2023-06-10T04:11:58;101391.53;;;18.41;57.66
79534;BME280;68982;52.160;6.736;2023-06-10T04:14:23;101386.97;;;18.17;57.79
79534;BME280;68982;52.160;6.736;2023-06-10T04:16:49;101390.00;;;18.27;58.02
79534;BME280;68982;52.160;6.736;2023-06-10T04:19:15;101394.88;;;18.43;57.33
79534;BME280;68982;52.160;6.736;2023-06-10T04:21:41;101396.59;;;18.38;57.42
79534;BME280;68982;52.160;6.736;2023-06-10T04:24:07;101393.34;;;18.29;57.11
79534;BME280;68982;52.160;6.736;2023-06-10T04:26:32;101395.19;;;18.35;57.80
79534;BME280;68982;52.160;6.736;2023-06-10T04:28:58;101390.88;;;18.46;57.33
79534;BME280;68982;52.160;6.736;2023-06-10T04:31:24;101392.97;;;18.44;57.61
79534;BME280;68982;52.160;6.736;2023-06-10T04:33:49;101400.03;;;18.33;57.52
79534;BME280;68982;52.160;6.736;2023-06-10T04:36:15;101399.06;;;18.46;57.61
79534;BME280;68982;52.160;6.736;2023-06-10T04:38:40;101406.16;;;18.47;57.08
79534;BME280;68982;52.160;6.736;2023-06-10T04:41:06;101403.44;;;18.47;57.54
79534;BME280;68982;52.160;6.736;2023-06-10T04:43:31;101407.03;;;18.48;57.28
79534;BME280;68982;52.160;6.736;2023-06-10T04:45:57;101406.50;;;18.39;57.38
79534;BME280;68982;52.160;6.736;2023-06-10T04:48:22;101404.19;;;18.36;57.22
79534;BME280;68982;52.160;6.736;2023-06-10T04:50:49;101401.44;;;18.17;57.49
79534;BME280;68982;52.160;6.736;2023-06-10T04:53:15;101411.34;;;18.37;57.16
79534;BME280;68982;52.160;6.736;2023-06-10T04:55:40;101409.44;;;18.37;57.48
79534;BME280;68982;52.160;6.736;2023-06-10T04:58:06;101409.03;;;18.15;58.15
79534;BME280;68982;52.160;6.736;2023-06-10T05:00:31;101411.28;;;18.18;57.50
79534;BME280;68982;52.160;6.736;2023-06-10T05:02:56;101408.97;;;18.22;57.62
79534;BME280;68982;52.160;6.736;2023-06-10T05:05:21;101414.75;;;18.07;57.83
79534;BME280;68982;52.160;6.736;2023-06-10T05:07:47;101404.56;;;18.21;57.86
79534;BME280;68982;52.160;6.736;2023-06-10T05:10:12;101411.16;;;18.32;57.97
79534;BME280;68982;52.160;6.736;2023-06-10T05:12:38;101417.56;;;18.44;57.83
79534;BME280;68982;52.160;6.736;2023-06-10T05:15:06;101417.84;;;18.36;57.10
79534;BME280;68982;52.160;6.736;2023-06-10T05:17:31;101416.63;;;18.32;57.64
79534;BME280;68982;52.160;6.736;2023-06-10T05:19:57;101414.47;;;18.59;57.22
79534;BME280;68982;52.160;6.736;2023-06-10T05:22:22;101413.75;;;18.45;56.96
79534;BME280;68982;52.160;6.736;2023-06-10T05:24:49;101415.44;;;18.46;56.50
79534;BME280;68982;52.160;6.736;2023-06-10T05:27:16;101405.72;;;18.50;56.38
79534;BME280;68982;52.160;6.736;2023-06-10T05:29:41;101414.44;;;18.40;56.27
79534;BME280;68982;52.160;6.736;2023-06-10T05:32:07;101405.06;;;18.36;57.01
79534;BME280;68982;52.160;6.736;2023-06-10T05:34:33;101408.75;;;18.42;56.68
79534;BME280;68982;52.160;6.736;2023-06-10T05:36:59;101407.94;;;18.41;56.48
79534;BME280;68982;52.160;6.736;2023-06-10T05:39:24;101402.53;;;18.53;56.24
79534;BME280;68982;52.160;6.736;2023-06-10T05:41:49;101406.47;;;18.57;56.59
79534;BME280;68982;52.160;6.736;2023-06-10T05:44:15;101400.41;;;18.74;55.85
79534;BME280;68982;52.160;6.736;2023-06-10T05:46:40;101403.81;;;18.69;55.21
79534;BME280;68982;52.160;6.736;2023-06-10T05:49:05;101412.69;;;18.83;55.36
79534;BME280;68982;52.160;6.736;2023-06-10T05:51:31;101414.81;;;18.99;55.38
79534;BME280;68982;52.160;6.736;2023-06-10T05:53:56;101414.81;;;18.99;55.23
79534;BME280;68982;52.160;6.736;2023-06-10T05:56:22;101412.63;;;19.08;55.17
79534;BME280;68982;52.160;6.736;2023-06-10T05:58:48;101407.56;;;19.23;53.94
79534;BME280;68982;52.160;6.736;2023-06-10T06:01:13;101415.38;;;19.20;54.17
79534;BME280;68982;52.160;6.736;2023-06-10T06:03:39;101425.41;;;19.26;54.23
79534;BME280;68982;52.160;6.736;2023-06-10T06:06:05;101410.22;;;19.42;53.74
79534;BME280;68982;52.160;6.736;2023-06-10T06:08:30;101424.41;;;19.51;53.27
79534;BME280;68982;52.160;6.736;2023-06-10T06:10:55;101419.13;;;19.37;53.29
79534;BME280;68982;52.160;6.736;2023-06-10T06:13:21;101421.56;;;19.57;53.15
79534;BME280;68982;52.160;6.736;2023-06-10T06:15:46;101424.72;;;19.42;53.14
79534;BME280;68982;52.160;6.736;2023-06-10T06:18:11;101428.00;;;19.63;51.99
79534;BME280;68982;52.160;6.736;2023-06-10T06:20:37;101425.34;;;19.56;52.89
79534;BME280;68982;52.160;6.736;2023-06-10T06:23:02;101422.22;;;19.71;51.34
79534;BME280;68982;52.160;6.736;2023-06-10T06:25:27;101425.06;;;19.76;52.15
79534;BME280;68982;52.160;6.736;2023-06-10T06:27:53;101422.81;;;19.85;52.18
79534;BME280;68982;52.160;6.736;2023-06-10T06:30:18;101426.66;;;19.96;51.77
79534;BME280;68982;52.160;6.736;2023-06-10T06:32:43;101428.44;;;20.02;50.34
79534;BME280;68982;52.160;6.736;2023-06-10T06:35:09;101430.72;;;20.17;49.22
79534;BME280;68982;52.160;6.736;2023-06-10T06:37:35;101430.59;;;20.12;50.65
79534;BME280;68982;52.160;6.736;2023-06-10T06:40:00;101434.50;;;20.27;51.32
79534;BME280;68982;52.160;6.736;2023-06-10T06:42:26;101431.78;;;20.39;50.14
79534;BME280;68982;52.160;6.736;2023-06-10T06:44:51;101428.19;;;20.50;48.53
79534;BME280;68982;52.160;6.736;2023-06-10T06:47:16;101433.22;;;20.65;48.30
79534;BME280;68982;52.160;6.736;2023-06-10T06:49:48;101438.91;;;20.76;46.74
79534;BME280;68982;52.160;6.736;2023-06-10T06:52:15;101430.63;;;20.87;46.32
79534;BME280;68982;52.160;6.736;2023-06-10T06:54:40;101435.97;;;20.94;47.40
79534;BME280;68982;52.160;6.736;2023-06-10T06:57:06;101428.19;;;21.15;46.68
79534;BME280;68982;52.160;6.736;2023-06-10T06:59:32;101430.47;;;21.06;46.90
79534;BME280;68982;52.160;6.736;2023-06-10T07:01:57;101439.97;;;21.15;47.61
79534;BME280;68982;52.160;6.736;2023-06-10T07:04:23;101430.28;;;21.24;46.83
79534;BME280;68982;52.160;6.736;2023-06-10T07:06:48;101446.16;;;21.51;45.79
79534;BME280;68982;52.160;6.736;2023-06-10T07:09:14;101448.75;;;21.58;45.26
79534;BME280;68982;52.160;6.736;2023-06-10T07:11:39;101453.53;;;21.79;43.80
79534;BME280;68982;52.160;6.736;2023-06-10T07:14:05;101441.84;;;21.72;44.76
79534;BME280;68982;52.160;6.736;2023-06-10T07:16:30;101437.72;;;21.86;41.60
79534;BME280;68982;52.160;6.736;2023-06-10T07:18:55;101446.09;;;22.13;41.66
79534;BME280;68982;52.160;6.736;2023-06-10T07:21:21;101445.63;;;22.00;43.23
79534;BME280;68982;52.160;6.736;2023-06-10T07:23:48;101449.59;;;22.09;42.34
79534;BME280;68982;52.160;6.736;2023-06-10T07:26:14;101454.16;;;22.20;42.13
79534;BME280;68982;52.160;6.736;2023-06-10T07:28:40;101461.69;;;22.25;41.94
79534;BME280;68982;52.160;6.736;2023-06-10T07:31:06;101455.44;;;22.12;42.02
79534;BME280;68982;52.160;6.736;2023-06-10T07:33:32;101455.19;;;22.31;41.18
79534;BME280;68982;52.160;6.736;2023-06-10T07:35:57;101458.28;;;22.34;41.13
79534;BME280;68982;52.160;6.736;2023-06-10T07:38:24;101452.31;;;22.60;40.58
79534;BME280;68982;52.160;6.736;2023-06-10T07:40:49;101457.09;;;22.69;40.98
79534;BME280;68982;52.160;6.736;2023-06-10T07:43:15;101454.41;;;22.52;40.17
79534;BME280;68982;52.160;6.736;2023-06-10T07:45:40;101461.13;;;22.62;40.61
79534;BME280;68982;52.160;6.736;2023-06-10T07:48:06;101448.72;;;22.59;41.17
79534;BME280;68982;52.160;6.736;2023-06-10T07:50:32;101444.31;;;22.80;40.47
79534;BME280;68982;52.160;6.736;2023-06-10T07:52:57;101455.47;;;22.90;41.25
79534;BME280;68982;52.160;6.736;2023-06-10T07:55:23;101448.44;;;23.00;41.06
79534;BME280;68982;52.160;6.736;2023-06-10T07:57:50;101455.53;;;23.17;41.09
79534;BME280;68982;52.160;6.736;2023-06-10T08:00:16;101456.69;;;23.22;40.25
79534;BME280;68982;52.160;6.736;2023-06-10T08:02:42;101456.16;;;23.25;39.88
79534;BME280;68982;52.160;6.736;2023-06-10T08:05:07;101448.09;;;23.18;40.06
79534;BME280;68982;52.160;6.736;2023-06-10T08:07:33;101456.00;;;23.36;39.36
79534;BME280;68982;52.160;6.736;2023-06-10T08:09:58;101458.84;;;23.74;38.79
79534;BME280;68982;52.160;6.736;2023-06-10T08:12:23;101451.94;;;23.71;38.24
79534;BME280;68982;52.160;6.736;2023-06-10T08:14:49;101459.94;;;24.05;37.53
79534;BME280;68982;52.160;6.736;2023-06-10T08:17:14;101459.81;;;23.90;39.89
79534;BME280;68982;52.160;6.736;2023-06-10T08:19:39;101458.13;;;24.21;37.59
79534;BME280;68982;52.160;6.736;2023-06-10T08:22:05;101457.72;;;24.39;36.24
79534;BME280;68982;52.160;6.736;2023-06-10T08:24:30;101448.41;;;24.46;36.63
79534;BME280;68982;52.160;6.736;2023-06-10T08:26:56;101453.41;;;24.49;37.56
79534;BME280;68982;52.160;6.736;2023-06-10T08:29:23;101450.63;;;24.49;36.13
79534;BME280;68982;52.160;6.736;2023-06-10T08:31:48;101453.19;;;24.60;36.68
79534;BME280;68982;52.160;6.736;2023-06-10T08:34:14;101441.06;;;24.61;36.09
79534;BME280;68982;52.160;6.736;2023-06-10T08:36:39;101451.78;;;24.53;36.54
79534;BME280;68982;52.160;6.736;2023-06-10T08:39:04;101445.44;;;24.52;36.96
79534;BME280;68982;52.160;6.736;2023-06-10T08:41:35;101451.03;;;24.73;36.20
79534;BME280;68982;52.160;6.736;2023-06-10T08:44:22;101454.13;;;24.81;35.89
79534;BME280;68982;52.160;6.736;2023-06-10T08:46:52;101452.75;;;24.84;36.14
79534;BME280;68982;52.160;6.736;2023-06-10T08:49:18;101445.56;;;24.83;37.06
79534;BME280;68982;52.160;6.736;2023-06-10T08:51:50;101453.78;;;25.46;35.08
79534;BME280;68982;52.160;6.736;2023-06-10T08:54:25;101454.91;;;25.60;34.65
79534;BME280;68982;52.160;6.736;2023-06-10T08:56:54;101447.69;;;25.34;35.70
79534;BME280;68982;52.160;6.736;2023-06-10T08:59:20;101447.94;;;25.32;35.51
79534;BME280;68982;52.160;6.736;2023-06-10T09:01:46;101445.22;;;25.63;35.49
79534;BME280;68982;52.160;6.736;2023-06-10T09:04:13;101441.03;;;25.30;36.35
79534;BME280;68982;52.160;6.736;2023-06-10T09:06:39;101444.09;;;25.38;36.72
79534;BME280;68982;52.160;6.736;2023-06-10T09:09:06;101441.88;;;25.46;36.11
79534;BME280;68982;52.160;6.736;2023-06-10T09:11:32;101447.16;;;25.52;35.55
79534;BME280;68982;52.160;6.736;2023-06-10T09:13:57;101442.47;;;25.63;35.51
79534;BME280;68982;52.160;6.736;2023-06-10T09:16:24;101437.25;;;25.92;33.79
79534;BME280;68982;52.160;6.736;2023-06-10T09:18:50;101444.41;;;26.19;33.24
79534;BME280;68982;52.160;6.736;2023-06-10T09:21:23;101446.66;;;26.17;34.07
79534;BME280;68982;52.160;6.736;2023-06-10T09:23:49;101445.75;;;26.57;33.56
79534;BME280;68982;52.160;6.736;2023-06-10T09:26:15;101442.69;;;26.43;35.29
79534;BME280;68982;52.160;6.736;2023-06-10T09:28:49;101447.66;;;26.52;32.67
79534;BME280;68982;52.160;6.736;2023-06-10T09:31:16;101447.38;;;26.69;33.36
79534;BME280;68982;52.160;6.736;2023-06-10T09:33:44;101439.94;;;26.43;34.30
79534;BME280;68982;52.160;6.736;2023-06-10T09:36:09;101444.63;;;26.58;33.93
79534;BME280;68982;52.160;6.736;2023-06-10T09:38:35;101440.47;;;26.66;33.71
79534;BME280;68982;52.160;6.736;2023-06-10T09:41:02;101433.28;;;26.50;34.18
79534;BME280;68982;52.160;6.736;2023-06-10T09:43:38;101438.00;;;26.59;33.70
79534;BME280;68982;52.160;6.736;2023-06-10T09:46:03;101433.91;;;27.06;32.74
79534;BME280;68982;52.160;6.736;2023-06-10T09:48:29;101437.50;;;27.07;33.46
79534;BME280;68982;52.160;6.736;2023-06-10T09:50:54;101435.78;;;27.26;32.98
79534;BME280;68982;52.160;6.736;2023-06-10T09:53:20;101436.41;;;27.03;32.83
79534;BME280;68982;52.160;6.736;2023-06-10T09:55:46;101432.25;;;27.11;33.03
79534;BME280;68982;52.160;6.736;2023-06-10T09:58:11;101434.69;;;27.22;33.70
79534;BME280;68982;52.160;6.736;2023-06-10T10:00:36;101421.41;;;27.14;33.10
79534;BME280;68982;52.160;6.736;2023-06-10T10:03:02;101429.09;;;27.33;32.20
79534;BME280;68982;52.160;6.736;2023-06-10T10:05:28;101428.41;;;27.51;32.73
79534;BME280;68982;52.160;6.736;2023-06-10T10:07:54;101434.31;;;27.74;32.48
79534;BME280;68982;52.160;6.736;2023-06-10T10:10:22;101421.78;;;27.86;32.04
79534;BME280;68982;52.160;6.736;2023-06-10T10:12:48;101422.28;;;27.54;32.24
79534;BME280;68982;52.160;6.736;2023-06-10T10:15:15;101431.34;;;27.65;31.72
79534;BME280;68982;52.160;6.736;2023-06-10T10:18:07;101429.16;;;27.96;30.98
79534;BME280;68982;52.160;6.736;2023-06-10T10:20:38;101426.03;;;28.03;31.31
79534;BME280;68982;52.160;6.736;2023-06-10T10:23:08;101428.75;;;28.08;30.73
79534;BME280;68982;52.160;6.736;2023-06-10T10:25:38;101429.31;;;28.34;30.53
79534;BME280;68982;52.160;6.736;2023-06-10T10:28:09;101415.59;;;28.24;31.00
79534;BME280;68982;52.160;6.736;2023-06-10T10:30:57;101419.59;;;28.13;31.36
79534;BME280;68982;52.160;6.736;2023-06-10T10:33:36;101419.94;;;28.06;31.21
79534;BME280;68982;52.160;6.736;2023-06-10T10:36:06;101428.00;;;28.56;29.90
79534;BME280;68982;52.160;6.736;2023-06-10T10:38:33;101423.63;;;28.49;30.92
79534;BME280;68982;52.160;6.736;2023-06-10T10:41:00;101424.72;;;28.54;29.49
79534;BME280;68982;52.160;6.736;2023-06-10T10:43:27;101427.28;;;28.69;29.56
79534;BME280;68982;52.160;6.736;2023-06-10T10:46:11;101424.94;;;28.57;30.30
79534;BME280;68982;52.160;6.736;2023-06-10T10:48:38;101424.22;;;28.46;29.40
79534;BME280;68982;52.160;6.736;2023-06-10T10:51:03;101413.91;;;28.52;30.39
79534;BME280;68982;52.160;6.736;2023-06-10T10:53:29;101416.81;;;28.37;29.99
79534;BME280;68982;52.160;6.736;2023-06-10T10:56:08;101417.63;;;29.09;29.10
79534;BME280;68982;52.160;6.736;2023-06-10T10:58:34;101421.44;;;29.51;28.28
79534;BME280;68982;52.160;6.736;2023-06-10T11:00:59;101413.22;;;29.79;26.98
79534;BME280;68982;52.160;6.736;2023-06-10T11:03:42;101407.78;;;29.88;27.02
79534;BME280;68982;52.160;6.736;2023-06-10T11:06:13;101414.09;;;29.93;27.22
79534;BME280;68982;52.160;6.736;2023-06-10T11:11:23;101409.13;;;29.58;26.54
79534;BME280;68982;52.160;6.736;2023-06-10T11:16:29;101403.78;;;29.94;26.60
79534;BME280;68982;52.160;6.736;2023-06-10T11:18:56;101409.44;;;29.89;26.84
79534;BME280;68982;52.160;6.736;2023-06-10T11:21:25;101408.25;;;30.23;25.13
79534;BME280;68982;52.160;6.736;2023-06-10T11:23:51;101388.47;;;31.52;22.55
79534;BME280;68982;52.160;6.736;2023-06-10T11:31:23;101398.38;;;30.30;25.52
79534;BME280;68982;52.160;6.736;2023-06-10T11:33:54;101400.88;;;30.60;23.38
79534;BME280;68982;52.160;6.736;2023-06-10T11:36:20;101389.72;;;30.87;24.88
79534;BME280;68982;52.160;6.736;2023-06-10T11:38:46;101390.41;;;31.29;22.69
79534;BME280;68982;52.160;6.736;2023-06-10T11:41:11;101392.09;;;31.16;23.31
79534;BME280;68982;52.160;6.736;2023-06-10T11:43:43;101406.81;;;30.81;24.51
79534;BME280;68982;52.160;6.736;2023-06-10T11:46:08;101393.41;;;30.96;24.29
79534;BME280;68982;52.160;6.736;2023-06-10T11:48:34;101392.25;;;30.84;23.98
79534;BME280;68982;52.160;6.736;2023-06-10T11:50:59;101381.44;;;30.96;24.56
79534;BME280;68982;52.160;6.736;2023-06-10T11:53:25;101388.22;;;31.04;25.65
79534;BME280;68982;52.160;6.736;2023-06-10T11:55:51;101388.03;;;31.00;23.63
79534;BME280;68982;52.160;6.736;2023-06-10T11:58:21;101389.53;;;30.42;24.03
79534;BME280;68982;52.160;6.736;2023-06-10T12:00:51;101386.22;;;30.95;23.95
79534;BME280;68982;52.160;6.736;2023-06-10T12:03:19;101382.41;;;31.50;22.40
79534;BME280;68982;52.160;6.736;2023-06-10T12:06:13;101380.44;;;31.73;22.76
79534;BME280;68982;52.160;6.736;2023-06-10T12:08:42;101382.41;;;31.73;22.93
79534;BME280;68982;52.160;6.736;2023-06-10T12:11:08;101381.91;;;31.71;23.67
79534;BME280;68982;52.160;6.736;2023-06-10T12:13:34;101380.78;;;31.13;23.09
79534;BME280;68982;52.160;6.736;2023-06-10T12:16:09;101377.28;;;31.07;23.27
79534;BME280;68982;52.160;6.736;2023-06-10T12:18:35;101369.84;;;31.39;22.50
79534;BME280;68982;52.160;6.736;2023-06-10T12:21:00;101372.63;;;31.39;23.90
79534;BME280;68982;52.160;6.736;2023-06-10T12:23:26;101368.50;;;31.36;23.20
79534;BME280;68982;52.160;6.736;2023-06-10T12:25:53;101361.22;;;31.04;23.17
79534;BME280;68982;52.160;6.736;2023-06-10T12:28:26;101361.31;;;30.99;24.28
79534;BME280;68982;52.160;6.736;2023-06-10T12:31:06;101371.53;;;30.40;25.70
79534;BME280;68982;52.160;6.736;2023-06-10T12:33:31;101359.03;;;31.37;23.57
79534;BME280;68982;52.160;6.736;2023-06-10T12:35:57;101369.09;;;31.70;22.66
79534;BME280;68982;52.160;6.736;2023-06-10T12:38:26;101368.09;;;31.97;22.19
79534;BME280;68982;52.160;6.736;2023-06-10T12:41:02;101362.94;;;31.14;23.54
79534;BME280;68982;52.160;6.736;2023-06-10T12:43:31;101363.84;;;30.73;24.70
79534;BME280;68982;52.160;6.736;2023-06-10T12:46:08;101350.44;;;30.89;24.44
79534;BME280;68982;52.160;6.736;2023-06-10T12:48:34;101356.03;;;30.20;25.17
79534;BME280;68982;52.160;6.736;2023-06-10T12:50:59;101356.34;;;30.18;23.41
79534;BME280;68982;52.160;6.736;2023-06-10T12:53:25;101345.13;;;30.51;24.42
79534;BME280;68982;52.160;6.736;2023-06-10T12:55:54;101352.84;;;30.54;25.69
79534;BME280;68982;52.160;6.736;2023-06-10T12:58:20;101353.94;;;31.17;23.96
79534;BME280;68982;52.160;6.736;2023-06-10T13:00:48;101346.00;;;31.47;23.54